24h
KLIENDITUGI:
Saartelennuliinid: +372 58856336 (24/7)
Estairi piletikassa lennujaamas:
+372 6058887; +372 55603687

06.11.2018 õhtune Transaviabaltika lend KTB676 kell 17:00 (kohalik aeg) Tallinn - Kärdla väljalend ja KTB677 kell 17:45 Kärdla – Tallinn väljalend jääb ära. Lennu ära jäämise põhjustab ilmastikuolu Kärdla lennuväljal. Reisijad toimetatakse sihtkohta bussiga. Tallinna lennujaama alumise korruse busside ootealalt väljub buss kell 17:05. Bussi number on 163 BVT. Reisijad viiakse Rohuküla sadamasse kella 19:00 väljuvale praamile. Heltermaal ootab reisijaid Gobus mis toimetab reisijad Kärdla. Kärdla lennujaamast väljub buss kell 16:50 mis toimetab reisijad Heltermaa sadamasse kella 17:30 praamile. Rohukülas ootab buss 163 BVT mis toimetab reisijad Tallinna. Lennuettevõtte poolt korraldatud bussisõit sh bussiga sõitjatele ka praamisõit on reisijatele tasuta. Kõikidele reisijatele kes ei kasuta lennuettevõtte poolt korraldatud tasuta bussisõitu sihtkohta, tagastatakse piletiraha. Lisainformatsioon 58856336. Informatsiooni vahetus: [email protected]

EEKA Kärdla lennuväli FCEO32 EETN 061300

TAF EEKA 061300Z 0614/0620 17010KT 6000 OVC007

TEMPO 0614/0617 1200 BR OVC003 BECMG 0617/0619 BKN012=

SPECI EEKA 061420Z 16010KT 6000 OVC004 08/08 Q1018=

Kuupäev: 
06/11/2018